Time;durP1;ratioP1;P1;durP2;ratioP2;P2;SDS_P1;SDS_P2;PMS_P1;PMS_P2;Temp;Humidity;BMP_temperature;BMP_pressure;BME280_temperature;BME280_humidity;BME280_pressure;Samples;Min_cycle;Max_cycle;Signal;HPM_P1;HPM_P2
2022/10/09 00:00:20;;;;;;;14.43;13.13;;;;;;;-141.48;100.00;69781.59;5249928;28;20028;-66
2022/10/09 00:02:51;;;;;;;15.45;13.98;;;;;;;-141.48;100.00;69781.59;5231751;28;20074;-67
2022/10/09 00:05:22;;;;;;;13.60;12.20;;;;;;;-141.48;100.00;69781.59;5231616;28;20025;-67
2022/10/09 00:07:53;;;;;;;15.75;14.25;;;;;;;-141.48;100.00;69781.59;5248147;28;20028;-66
2022/10/09 00:10:25;;;;;;;12.90;11.82;;;;;;;-141.48;100.00;69781.59;5248559;28;20609;-67
2022/10/09 00:12:55;;;;;;;12.63;11.40;;;;;;;-141.48;100.00;69781.59;5248337;28;20024;-67
2022/10/09 00:15:26;;;;;;;16.77;14.95;;;;;;;-141.48;100.00;69781.59;5231374;28;20396;-66
2022/10/09 00:17:56;;;;;;;14.32;13.25;;;;;;;-141.48;100.00;69781.59;5248028;28;20481;-67
2022/10/09 00:20:27;;;;;;;12.88;11.90;;;;;;;-141.48;100.00;69781.59;5247969;28;20492;-67
2022/10/09 00:22:57;;;;;;;15.65;12.13;;;;;;;-141.48;100.00;69781.59;5231251;28;20473;-66
2022/10/09 00:25:27;;;;;;;15.38;14.02;;;;;;;-141.48;100.00;69781.59;5247669;28;20388;-66
2022/10/09 00:27:59;;;;;;;13.75;12.55;;;;;;;-141.48;100.00;69781.59;5231011;28;20024;-67
2022/10/09 00:30:29;;;;;;;15.18;13.82;;;;;;;-141.48;100.00;69781.59;5231503;28;20502;-67
2022/10/09 00:33:00;;;;;;;15.00;13.25;;;;;;;-141.48;100.00;69781.59;5231351;28;20021;-67
2022/10/09 00:35:30;;;;;;;14.27;12.15;;;;;;;-141.48;100.00;69781.59;5247293;28;20052;-67
2022/10/09 00:38:01;;;;;;;23.92;13.65;;;;;;;-141.48;100.00;69781.59;5248139;28;20028;-67
2022/10/09 00:40:32;;;;;;;13.40;12.18;;;;;;;-141.48;100.00;69781.59;5231573;28;20399;-66
2022/10/09 00:43:06;;;;;;;13.90;12.68;;;;;;;-141.48;100.00;69781.59;5231870;28;20031;-67
2022/10/09 00:45:36;;;;;;;12.80;11.60;;;;;;;-141.48;100.00;69781.59;5249832;28;20032;-67
2022/10/09 00:48:09;;;;;;;14.15;13.10;;;;;;;-141.48;100.00;69781.59;5232019;28;20503;-66
2022/10/09 00:50:45;;;;;;;13.27;11.48;;;;;;;-141.48;100.00;69781.59;5249388;28;20025;-66
2022/10/09 00:53:18;;;;;;;12.93;12.13;;;;;;;-141.48;100.00;69781.59;5248035;28;20025;-66
2022/10/09 00:55:49;;;;;;;12.85;11.82;;;;;;;-141.48;100.00;69781.59;5230653;28;20047;-67
2022/10/09 00:58:21;;;;;;;11.85;10.70;;;;;;;-141.48;100.00;69781.59;5247465;28;20046;-67
2022/10/09 01:00:52;;;;;;;12.10;10.80;;;;;;;-141.48;100.00;69781.59;5230403;28;20052;-67
2022/10/09 01:03:22;;;;;;;11.93;10.77;;;;;;;-141.48;100.00;69781.59;5228797;22;20075;-70
2022/10/09 01:06:05;;;;;;;12.15;11.23;;;;;;;-141.48;100.00;69781.59;5205424;28;20025;-70
2022/10/09 01:08:45;;;;;;;11.88;10.85;;;;;;;-141.48;100.00;69781.59;5207140;28;20037;-68
2022/10/09 01:11:19;;;;;;;13.88;11.23;;;;;;;-141.48;100.00;69781.59;5206103;28;20026;-70
2022/10/09 01:14:00;;;;;;;13.60;12.40;;;;;;;-141.48;100.00;69781.59;5204655;28;20427;-67
2022/10/09 01:16:43;;;;;;;13.80;12.77;;;;;;;-141.48;100.00;69781.59;5206059;28;20436;-69
2022/10/09 01:19:45;;;;;;;13.15;12.15;;;;;;;-141.48;100.00;69781.59;5205867;28;20381;-69
2022/10/09 01:22:18;;;;;;;12.60;11.38;;;;;;;-141.48;100.00;69781.59;5205938;28;20025;-69
2022/10/09 01:25:06;;;;;;;11.90;10.90;;;;;;;-141.48;100.00;69781.59;5205618;28;20029;-69
2022/10/09 01:27:37;;;;;;;14.18;12.88;;;;;;;-141.48;100.00;69781.59;5205952;28;20489;-69
2022/10/09 01:30:09;;;;;;;12.50;11.38;;;;;;;-141.48;100.00;69781.59;5205728;28;20029;-69
2022/10/09 01:32:44;;;;;;;13.88;11.77;;;;;;;-141.48;100.00;69781.59;5205796;28;20025;-69
2022/10/09 01:35:16;;;;;;;12.20;11.13;;;;;;;-141.48;100.00;69781.59;5205390;28;20029;-69
2022/10/09 01:37:50;;;;;;;14.25;12.75;;;;;;;-141.48;100.00;69781.59;5205450;28;20064;-69
2022/10/09 01:40:22;;;;;;;15.00;12.63;;;;;;;-141.48;100.00;69781.59;5205209;28;20029;-69
2022/10/09 01:42:54;;;;;;;13.13;12.13;;;;;;;-141.48;100.00;69781.59;5205416;28;20493;-70
2022/10/09 01:45:24;;;;;;;12.85;11.63;;;;;;;-141.48;100.00;69781.59;5205491;28;20053;-69
2022/10/09 01:47:55;;;;;;;12.48;11.60;;;;;;;-141.48;100.00;69781.59;5204604;28;20052;-69
2022/10/09 01:50:31;;;;;;;13.98;12.65;;;;;;;-141.48;100.00;69781.59;5204915;28;20025;-69
2022/10/09 01:53:12;;;;;;;14.45;13.20;;;;;;;-141.48;100.00;69781.59;5206790;28;20497;-68
2022/10/09 01:55:52;;;;;;;12.57;11.55;;;;;;;-141.48;100.00;69781.59;5204450;28;20025;-69
2022/10/09 01:58:37;;;;;;;13.60;12.70;;;;;;;-141.48;100.00;69781.59;5205084;28;20033;-69
2022/10/09 02:01:23;;;;;;;12.05;10.00;;;;;;;-141.48;100.00;69781.59;5204856;28;20021;-69
2022/10/09 02:03:56;;;;;;;13.75;12.82;;;;;;;-141.48;100.00;69781.59;5204828;28;20118;-72
2022/10/09 02:06:27;;;;;;;13.55;12.43;;;;;;;-141.48;100.00;69781.59;5204801;28;20366;-69
2022/10/09 02:08:59;;;;;;;12.10;11.00;;;;;;;-141.48;100.00;69781.59;5204434;28;20493;-69
2022/10/09 02:11:32;;;;;;;12.82;11.38;;;;;;;-141.48;100.00;69781.59;5204969;28;20021;-69
2022/10/09 02:14:02;;;;;;;13.73;12.40;;;;;;;-141.48;100.00;69781.59;5203456;28;20030;-68
2022/10/09 02:16:51;;;;;;;11.90;11.15;;;;;;;-141.48;100.00;69781.59;5204904;28;20040;-67
2022/10/09 02:19:47;;;;;;;14.25;11.68;;;;;;;-141.48;100.00;69781.59;5204459;28;20547;-68
2022/10/09 02:22:26;;;;;;;12.77;11.68;;;;;;;-141.48;100.00;69781.59;5204853;28;20095;-66
2022/10/09 02:25:00;;;;;;;11.97;11.07;;;;;;;-141.48;100.00;69781.59;5204304;28;20017;-67
2022/10/09 02:27:32;;;;;;;10.70;9.90;;;;;;;-141.48;100.00;69781.59;5204252;28;20338;-68
2022/10/09 02:30:06;;;;;;;15.18;10.02;;;;;;;-141.48;100.00;69781.59;5204153;28;20063;-67
2022/10/09 02:32:36;;;;;;;11.88;10.23;;;;;;;-141.48;100.00;69781.59;5204254;28;20019;-68
2022/10/09 02:35:07;;;;;;;12.38;11.48;;;;;;;-141.48;100.00;69781.59;5204380;28;20040;-68
2022/10/09 02:37:38;;;;;;;16.33;10.75;;;;;;;-141.48;100.00;69781.59;5204332;28;20017;-68
2022/10/09 02:40:09;;;;;;;10.95;10.07;;;;;;;-141.48;100.00;69781.59;5203709;28;20025;-67
2022/10/09 02:42:39;;;;;;;19.13;10.90;;;;;;;-141.48;100.00;69781.59;5205438;28;20029;-68
2022/10/09 02:45:10;;;;;;;12.30;11.07;;;;;;;-141.48;100.00;69781.59;5203967;28;20082;-68
2022/10/09 02:47:40;;;;;;;12.60;10.60;;;;;;;-141.48;100.00;69781.59;5203892;28;20026;-68
2022/10/09 02:50:10;;;;;;;15.30;11.95;;;;;;;-141.48;100.00;69781.59;5204974;28;20029;-68
2022/10/09 02:52:41;;;;;;;13.18;11.80;;;;;;;-141.48;100.00;69781.59;5205365;28;20030;-67
2022/10/09 02:55:11;;;;;;;11.70;10.57;;;;;;;-141.48;100.00;69781.59;5205353;28;20104;-67
2022/10/09 02:57:42;;;;;;;10.07;9.23;;;;;;;-141.48;100.00;69781.59;5204330;28;20036;-67
2022/10/09 03:00:13;;;;;;;13.23;11.45;;;;;;;-141.48;100.00;69781.59;5202675;28;20029;-69
2022/10/09 03:02:43;;;;;;;10.18;9.32;;;;;;;-141.48;100.00;69781.59;5203293;28;20033;-67
2022/10/09 03:05:14;;;;;;;11.57;9.40;;;;;;;-141.48;100.00;69781.59;5203727;28;20028;-68
2022/10/09 03:07:50;;;;;;;10.27;9.40;;;;;;;-141.48;100.00;69781.59;5203274;28;20033;-68
2022/10/09 03:10:20;;;;;;;10.50;9.48;;;;;;;-141.48;100.00;69781.59;5204283;28;20311;-68
2022/10/09 03:12:51;;;;;;;9.90;8.63;;;;;;;-141.48;100.00;69781.59;5204096;28;20036;-68
2022/10/09 03:15:21;;;;;;;11.55;10.73;;;;;;;-141.48;100.00;69781.59;5203503;28;20032;-68
2022/10/09 03:17:52;;;;;;;10.30;9.70;;;;;;;-141.48;100.00;69781.59;5203328;28;20029;-69
2022/10/09 03:20:22;;;;;;;10.93;10.20;;;;;;;-141.48;100.00;69781.59;5203402;28;20029;-69
2022/10/09 03:22:52;;;;;;;11.38;10.30;;;;;;;-141.48;100.00;69781.59;5203882;28;20022;-67
2022/10/09 03:25:23;;;;;;;11.45;10.55;;;;;;;-141.48;100.00;69781.59;5203657;28;20036;-68
2022/10/09 03:27:54;;;;;;;11.40;10.43;;;;;;;-141.48;100.00;69781.59;5204333;28;20025;-69
2022/10/09 03:30:24;;;;;;;11.35;10.23;;;;;;;-141.48;100.00;69781.59;5202961;28;20092;-68
2022/10/09 03:32:55;;;;;;;11.77;10.90;;;;;;;-141.48;100.00;69781.59;5205091;28;20385;-69
2022/10/09 03:35:25;;;;;;;12.00;10.98;;;;;;;-141.48;100.00;69781.59;5203059;28;20442;-68
2022/10/09 03:37:56;;;;;;;11.85;9.63;;;;;;;-141.48;100.00;69781.59;5203922;28;20031;-69
2022/10/09 03:40:26;;;;;;;9.68;8.82;;;;;;;-141.48;100.00;69781.59;5203278;28;20060;-68
2022/10/09 03:42:57;;;;;;;10.43;9.43;;;;;;;-141.48;100.00;69781.59;5203721;28;20079;-68
2022/10/09 03:45:27;;;;;;;10.77;8.55;;;;;;;-141.48;100.00;69781.59;5203969;28;20029;-68
2022/10/09 03:47:58;;;;;;;9.57;8.95;;;;;;;-141.48;100.00;69781.59;5203135;28;20452;-67
2022/10/09 03:50:28;;;;;;;10.32;9.38;;;;;;;-141.48;100.00;69781.59;5203957;28;20021;-68
2022/10/09 03:52:58;;;;;;;9.77;9.18;;;;;;;-141.48;100.00;69781.59;5203991;28;20493;-68
2022/10/09 03:55:29;;;;;;;15.73;9.38;;;;;;;-141.48;100.00;69781.59;5204955;28;20029;-69
2022/10/09 03:58:00;;;;;;;10.35;9.65;;;;;;;-141.48;100.00;69781.59;5204551;28;20056;-68
2022/10/09 04:00:31;;;;;;;12.05;10.77;;;;;;;-141.48;100.00;69781.59;5204110;28;20025;-68
2022/10/09 04:03:02;;;;;;;11.65;10.85;;;;;;;-141.48;100.00;69781.59;5203901;28;20033;-68
2022/10/09 04:05:34;;;;;;;8.98;8.35;;;;;;;-141.48;100.00;69781.59;5203340;28;20025;-68
2022/10/09 04:08:04;;;;;;;11.18;10.27;;;;;;;-141.48;100.00;69781.59;5203673;28;20029;-68
2022/10/09 04:10:34;;;;;;;10.60;9.88;;;;;;;-141.48;100.00;69781.59;5203783;28;20083;-68
2022/10/09 04:13:05;;;;;;;12.60;10.63;;;;;;;-141.48;100.00;69781.59;5207429;28;20363;-69
2022/10/09 04:15:36;;;;;;;9.30;8.52;;;;;;;-141.48;100.00;69781.59;5207071;28;20505;-69
2022/10/09 04:18:06;;;;;;;11.25;10.45;;;;;;;-141.48;100.00;69781.59;5207349;28;20548;-69
2022/10/09 04:20:37;;;;;;;12.73;11.50;;;;;;;-141.48;100.00;69781.59;5207258;28;20486;-69
2022/10/09 04:23:07;;;;;;;10.38;9.60;;;;;;;-141.48;100.00;69781.59;5207646;28;20413;-67
2022/10/09 04:25:38;;;;;;;9.65;9.02;;;;;;;-141.48;100.00;69781.59;5206562;28;20545;-66
2022/10/09 04:28:08;;;;;;;18.75;9.98;;;;;;;-141.48;100.00;69781.59;5207160;28;20486;-68
2022/10/09 04:30:38;;;;;;;9.73;8.98;;;;;;;-141.48;100.00;69781.59;5207160;28;20021;-69
2022/10/09 04:33:09;;;;;;;20.42;11.95;;;;;;;-141.48;100.00;69781.59;5207205;28;20029;-70
2022/10/09 04:35:44;;;;;;;11.00;9.95;;;;;;;-141.48;100.00;69781.59;5206520;28;20032;-68
2022/10/09 04:38:14;;;;;;;9.70;8.95;;;;;;;-141.48;100.00;69781.59;5207034;28;20124;-69
2022/10/09 04:40:58;;;;;;;11.85;10.60;;;;;;;-141.48;100.00;69781.59;5207200;28;20029;-67
2022/10/09 04:43:29;;;;;;;11.45;10.57;;;;;;;-141.48;100.00;69781.59;5203927;28;20064;-67
2022/10/09 04:46:09;;;;;;;9.85;9.15;;;;;;;-141.48;100.00;69781.59;5206917;28;20029;-68
2022/10/09 04:48:42;;;;;;;10.95;10.02;;;;;;;-141.48;100.00;69781.59;5206990;28;20052;-68
2022/10/09 04:51:13;;;;;;;10.20;9.38;;;;;;;-141.48;100.00;69781.59;5206768;28;20029;-69
2022/10/09 04:53:44;;;;;;;9.75;8.95;;;;;;;-141.48;100.00;69781.59;5206716;28;20059;-67
2022/10/09 04:56:17;;;;;;;10.63;9.73;;;;;;;-141.48;100.00;69781.59;5207107;28;20025;-71
2022/10/09 04:58:49;;;;;;;10.05;9.18;;;;;;;-141.48;100.00;69781.59;5206720;28;20022;-68
2022/10/09 05:01:24;;;;;;;9.98;9.07;;;;;;;-141.48;100.00;69781.59;5206377;28;20520;-68
2022/10/09 05:03:55;;;;;;;8.77;8.18;;;;;;;-141.48;100.00;69781.59;5205919;28;20029;-69
2022/10/09 05:06:25;;;;;;;10.52;9.57;;;;;;;-141.48;100.00;69781.59;5208077;28;20033;-69
2022/10/09 05:08:56;;;;;;;9.63;8.93;;;;;;;-141.48;100.00;69781.59;5206498;28;20025;-69
2022/10/09 05:11:26;;;;;;;8.73;8.05;;;;;;;-141.48;100.00;69781.59;5206719;28;20021;-68
2022/10/09 05:13:57;;;;;;;12.43;11.13;;;;;;;-141.48;100.00;69781.59;5206194;28;20120;-68
2022/10/09 05:16:30;;;;;;;10.02;9.35;;;;;;;-141.48;100.00;69781.59;5206503;28;20029;-68
2022/10/09 05:19:01;;;;;;;12.38;11.05;;;;;;;-141.48;100.00;69781.59;5206552;28;20022;-69
2022/10/09 05:21:32;;;;;;;25.45;23.60;;;;;;;-141.48;100.00;69781.59;5207253;28;20041;-69
2022/10/09 05:24:02;;;;;;;18.02;16.65;;;;;;;-141.48;100.00;69781.59;5205265;28;20021;-68
2022/10/09 05:26:33;;;;;;;12.98;11.98;;;;;;;-141.48;100.00;69781.59;5205986;28;20116;-69
2022/10/09 05:29:03;;;;;;;13.68;12.32;;;;;;;-141.48;100.00;69781.59;5205592;28;20051;-68
2022/10/09 05:31:34;;;;;;;11.30;10.45;;;;;;;-141.48;100.00;69781.59;5205648;28;20036;-67
2022/10/09 05:34:04;;;;;;;11.13;10.02;;;;;;;-141.48;100.00;69781.59;5205170;28;20025;-68
2022/10/09 05:36:35;;;;;;;10.75;10.05;;;;;;;-141.48;100.00;69781.59;5205927;28;20035;-70
2022/10/09 05:39:06;;;;;;;17.80;10.05;;;;;;;-141.48;100.00;69781.59;5207001;28;20083;-70
2022/10/09 05:41:36;;;;;;;10.77;10.07;;;;;;;-141.48;100.00;69781.59;5205699;28;20029;-68
2022/10/09 05:44:07;;;;;;;15.15;10.27;;;;;;;-141.48;100.00;69781.59;5204861;28;20083;-70
2022/10/09 05:46:38;;;;;;;12.75;11.75;;;;;;;-141.48;100.00;69781.59;5204777;28;20040;-68
2022/10/09 05:49:09;;;;;;;10.77;10.02;;;;;;;-141.48;100.00;69781.59;5204335;28;20024;-70
2022/10/09 05:51:41;;;;;;;9.40;8.77;;;;;;;-141.48;100.00;69781.59;5205351;28;20116;-70
2022/10/09 05:54:14;;;;;;;10.48;9.48;;;;;;;-141.48;100.00;69781.59;5205349;28;20091;-71
2022/10/09 05:56:45;;;;;;;10.43;9.27;;;;;;;-141.48;100.00;69781.59;5203341;28;20079;-69
2022/10/09 05:59:20;;;;;;;9.88;9.18;;;;;;;-141.48;100.00;69781.59;5205029;28;20030;-68
2022/10/09 06:01:52;;;;;;;12.10;10.95;;;;;;;-141.48;100.00;69781.59;5205305;28;20025;-71
2022/10/09 06:04:23;;;;;;;10.93;9.13;;;;;;;-141.48;100.00;69781.59;5204169;28;20029;-70
2022/10/09 06:06:54;;;;;;;10.75;9.95;;;;;;;-141.48;100.00;69781.59;5205038;28;20490;-72
2022/10/09 06:09:25;;;;;;;11.48;10.63;;;;;;;-141.48;100.00;69781.59;5203650;28;20115;-71
2022/10/09 06:11:55;;;;;;;10.38;9.38;;;;;;;-141.48;100.00;69781.59;5205084;28;20383;-70
2022/10/09 06:14:26;;;;;;;13.20;9.63;;;;;;;-141.48;100.00;69781.59;5206298;28;20036;-71
2022/10/09 06:16:57;;;;;;;10.80;10.07;;;;;;;-141.48;100.00;69781.59;5204887;28;20061;-68
2022/10/09 06:19:28;;;;;;;9.90;9.10;;;;;;;-141.48;100.00;69781.59;5204764;28;20025;-72
2022/10/09 06:21:58;;;;;;;11.13;10.32;;;;;;;-141.48;100.00;69781.59;5204987;28;20091;-69
2022/10/09 06:24:29;;;;;;;12.70;11.40;;;;;;;-141.48;100.00;69781.59;5204601;28;20044;-70
2022/10/09 06:26:59;;;;;;;9.98;9.27;;;;;;;-141.48;100.00;69781.59;5204618;28;20087;-70
2022/10/09 06:29:31;;;;;;;10.90;9.40;;;;;;;-141.48;100.00;69781.59;5188873;28;20432;-70
2022/10/09 06:32:01;;;;;;;11.82;10.82;;;;;;;-141.48;100.00;69781.59;5204944;28;20022;-70
2022/10/09 06:34:32;;;;;;;12.82;11.68;;;;;;;-141.48;100.00;69781.59;5204474;28;20031;-71
2022/10/09 06:37:02;;;;;;;11.80;10.65;;;;;;;-141.48;100.00;69781.59;5205197;28;20018;-70
2022/10/09 06:39:33;;;;;;;10.48;9.73;;;;;;;-141.48;100.00;69781.59;5204774;28;20031;-71
2022/10/09 06:42:03;;;;;;;10.25;9.65;;;;;;;-141.48;100.00;69781.59;5204847;28;20041;-71
2022/10/09 06:44:34;;;;;;;12.40;10.27;;;;;;;-141.48;100.00;69781.59;5204252;28;20024;-69
2022/10/09 06:47:04;;;;;;;12.65;11.60;;;;;;;-141.48;100.00;69781.59;5204495;28;20033;-70
2022/10/09 06:49:34;;;;;;;11.35;10.63;;;;;;;-141.48;100.00;69781.59;5204099;28;20025;-73
2022/10/09 06:52:05;;;;;;;14.20;12.82;;;;;;;-141.48;100.00;69781.59;5203774;28;20025;-71
2022/10/09 06:54:35;;;;;;;14.93;11.95;;;;;;;-141.48;100.00;69781.59;5203293;28;20068;-72
2022/10/09 06:57:06;;;;;;;13.82;12.73;;;;;;;-141.48;100.00;69781.59;5203586;28;20037;-71
2022/10/09 06:59:36;;;;;;;13.00;11.82;;;;;;;-141.48;100.00;69781.59;5204035;28;20083;-70
2022/10/09 07:02:07;;;;;;;14.82;13.80;;;;;;;-141.48;100.00;69781.59;5204232;28;20057;-70
2022/10/09 07:04:38;;;;;;;16.08;14.73;;;;;;;-141.48;100.00;69781.59;5208029;28;20535;-70
2022/10/09 07:07:08;;;;;;;19.05;14.95;;;;;;;-141.48;100.00;69781.59;5208485;28;20048;-69
2022/10/09 07:09:39;;;;;;;16.02;14.82;;;;;;;-141.48;100.00;69781.59;5207891;28;20017;-69
2022/10/09 07:12:09;;;;;;;15.45;14.05;;;;;;;-141.48;100.00;69781.59;5208950;28;20033;-70
2022/10/09 07:14:40;;;;;;;16.40;14.95;;;;;;;-141.48;100.00;69781.59;5208188;28;20025;-69
2022/10/09 07:17:10;;;;;;;16.10;14.55;;;;;;;-141.48;100.00;69781.59;5208118;28;20482;-69
2022/10/09 07:19:41;;;;;;;17.42;15.45;;;;;;;-141.48;100.00;69781.59;5208398;28;20503;-70
2022/10/09 07:22:11;;;;;;;12.93;12.02;;;;;;;-141.48;100.00;69781.59;5208247;28;20029;-69
2022/10/09 07:24:41;;;;;;;14.88;12.18;;;;;;;-141.48;100.00;69781.59;5207657;28;20028;-70
2022/10/09 07:27:12;;;;;;;20.85;15.85;;;;;;;-141.48;100.00;69781.59;5207299;28;20056;-71
2022/10/09 07:29:42;;;;;;;17.52;14.93;;;;;;;-141.48;100.00;69781.59;5205989;28;20025;-70
2022/10/09 07:32:13;;;;;;;13.70;12.70;;;;;;;-141.48;100.00;69781.59;5207467;28;20028;-69
2022/10/09 07:34:43;;;;;;;14.65;13.43;;;;;;;-141.48;100.00;69781.59;5207179;28;20086;-69
2022/10/09 07:37:14;;;;;;;13.43;12.35;;;;;;;-141.48;100.00;69781.59;5206337;28;20119;-69
2022/10/09 07:39:44;;;;;;;15.00;11.82;;;;;;;-141.48;100.00;69781.59;5206345;28;20397;-69
2022/10/09 07:42:15;;;;;;;17.55;11.38;;;;;;;-141.48;100.00;69781.59;5206321;28;20090;-69
2022/10/09 07:44:48;;;;;;;12.23;11.25;;;;;;;-141.48;100.00;69781.59;5206776;28;20507;-70
2022/10/09 07:47:18;;;;;;;11.25;10.40;;;;;;;-141.48;100.00;69781.59;5228307;28;20151;-70
2022/10/09 07:49:49;;;;;;;13.13;11.18;;;;;;;-141.48;100.00;69781.59;5210952;28;20103;-70
2022/10/09 07:52:20;;;;;;;10.73;9.93;;;;;;;-141.48;100.00;69781.59;5211345;28;20025;-70
2022/10/09 07:54:50;;;;;;;20.38;10.05;;;;;;;-141.48;100.00;69781.59;5211026;28;20409;-70
2022/10/09 07:57:20;;;;;;;13.35;8.88;;;;;;;-141.48;100.00;69781.59;5211453;28;20032;-70
2022/10/09 07:59:51;;;;;;;8.73;7.93;;;;;;;-141.48;100.00;69781.59;5211413;28;20489;-72
2022/10/09 08:02:24;;;;;;;9.57;8.68;;;;;;;-141.48;100.00;69781.59;5211398;28;20044;-72
2022/10/09 08:04:55;;;;;;;12.60;10.98;;;;;;;-141.48;100.00;69781.59;5209923;28;20043;-73
2022/10/09 08:07:25;;;;;;;21.55;10.00;;;;;;;-141.48;100.00;69781.59;5208797;28;20536;-70
2022/10/09 08:09:56;;;;;;;10.30;8.80;;;;;;;-141.48;100.00;69781.59;5211152;28;20021;-71
2022/10/09 08:12:26;;;;;;;8.48;7.63;;;;;;;-141.48;100.00;69781.59;5211125;28;20445;-72
2022/10/09 08:14:57;;;;;;;11.82;7.60;;;;;;;-141.48;100.00;69781.59;5209503;28;20511;-72
2022/10/09 08:17:27;;;;;;;10.70;7.00;;;;;;;-141.48;100.00;69781.59;5209730;28;20068;-72
2022/10/09 08:19:58;;;;;;;8.90;8.02;;;;;;;-141.48;100.00;69781.59;5210824;28;20025;-71
2022/10/09 08:22:28;;;;;;;8.75;8.07;;;;;;;-141.48;100.00;69781.59;5210903;28;20044;-71
2022/10/09 08:24:59;;;;;;;8.88;8.10;;;;;;;-141.48;100.00;69781.59;5210499;28;20028;-72
2022/10/09 08:27:29;;;;;;;6.88;6.30;;;;;;;-141.48;100.00;69781.59;5228765;28;20086;-71
2022/10/09 08:30:00;;;;;;;12.45;7.85;;;;;;;-141.48;100.00;69781.59;5224302;22;20058;-72
2022/10/09 08:32:30;;;;;;;7.45;6.85;;;;;;;-141.48;100.00;69781.59;5208267;28;20044;-75
2022/10/09 08:35:01;;;;;;;9.27;7.15;;;;;;;-141.48;100.00;69781.59;5225967;28;20028;-75
2022/10/09 08:37:31;;;;;;;7.70;7.00;;;;;;;-141.48;100.00;69781.59;5207956;28;20119;-75
2022/10/09 08:40:03;;;;;;;12.50;7.40;;;;;;;-141.48;100.00;69781.59;5195587;28;20025;-72
2022/10/09 08:42:48;;;;;;;7.50;6.63;;;;;;;-141.48;100.00;69781.59;5190565;28;20037;-74
2022/10/09 08:45:18;;;;;;;6.65;6.18;;;;;;;-141.48;100.00;69781.59;5189612;28;20481;-75
2022/10/09 08:48:01;;;;;;;7.50;5.95;;;;;;;-141.48;100.00;69781.59;5190723;28;20036;-73
2022/10/09 08:50:36;;;;;;;8.60;7.95;;;;;;;-141.48;100.00;69781.59;5190597;28;20022;-73
2022/10/09 08:53:07;;;;;;;14.75;6.90;;;;;;;-141.48;100.00;69781.59;5190348;28;20164;-72
2022/10/09 08:55:47;;;;;;;7.15;6.47;;;;;;;-141.48;100.00;69781.59;5207659;28;20465;-73
2022/10/09 08:58:20;;;;;;;6.75;6.35;;;;;;;-141.48;100.00;69781.59;5206965;28;20028;-73
2022/10/09 09:00:58;;;;;;;7.22;6.60;;;;;;;-141.48;100.00;69781.59;5189617;28;20021;-72
2022/10/09 09:03:53;;;;;;;8.55;7.00;;;;;;;-141.48;100.00;69781.59;5207777;28;20038;-74
2022/10/09 09:06:29;;;;;;;6.40;5.90;;;;;;;-141.48;100.00;69781.59;5189913;28;20401;-73
2022/10/09 09:09:21;;;;;;;6.03;5.55;;;;;;;-141.48;100.00;69781.59;5207718;28;20382;-72
2022/10/09 09:12:14;;;;;;;6.90;6.20;;;;;;;-141.48;100.00;69781.59;5189994;28;20489;-72
2022/10/09 09:15:31;;;;;;;5.15;4.85;;;;;;;-141.48;100.00;69781.59;5189143;28;20021;-71
2022/10/09 09:18:43;;;;;;;5.20;4.75;;;;;;;-141.48;100.00;69781.59;5182008;28;20395;-71
2022/10/09 09:21:31;;;;;;;10.30;5.00;;;;;;;-141.48;100.00;69781.59;5149354;28;20076;-71
2022/10/09 09:24:10;;;;;;;4.35;3.90;;;;;;;-141.48;100.00;69781.59;5169148;28;20029;-69
2022/10/09 09:26:44;;;;;;;4.63;4.43;;;;;;;-141.48;100.00;69781.59;5169785;28;20037;-68
2022/10/09 09:29:20;;;;;;;5.15;4.75;;;;;;;-141.48;100.00;69781.59;5187591;28;20029;-71
2022/10/09 09:32:00;;;;;;;3.72;3.42;;;;;;;-141.48;100.00;69781.59;5169074;28;20034;-69
2022/10/09 09:34:38;;;;;;;10.20;4.45;;;;;;;-141.48;100.00;69781.59;5168833;28;20054;-71
2022/10/09 09:37:12;;;;;;;10.18;5.32;;;;;;;-141.48;100.00;69781.59;5186682;28;20088;-69
2022/10/09 09:39:43;;;;;;;6.28;4.43;;;;;;;-141.48;100.00;69781.59;5184696;28;20120;-69
2022/10/09 09:42:16;;;;;;;6.93;4.00;;;;;;;-141.48;100.00;69781.59;5187844;28;20465;-69
2022/10/09 09:44:54;;;;;;;7.60;4.20;;;;;;;-141.48;100.00;69781.59;5188818;28;20028;-69
2022/10/09 09:47:59;;;;;;;4.65;4.03;;;;;;;-141.48;100.00;69781.59;5189214;28;20029;-69
2022/10/09 09:50:35;;;;;;;3.70;3.50;;;;;;;-141.48;100.00;69781.59;5189152;28;20017;-69
2022/10/09 09:53:18;;;;;;;7.88;3.92;;;;;;;-141.48;100.00;69781.59;5207314;28;20481;-69
2022/10/09 09:55:53;;;;;;;7.75;3.92;;;;;;;-141.48;100.00;69781.59;5208737;28;20062;-69
2022/10/09 09:58:37;;;;;;;6.50;4.40;;;;;;;-141.48;100.00;69781.59;5209388;28;20036;-68
2022/10/09 10:01:28;;;;;;;8.68;3.22;;;;;;;-141.48;100.00;69781.59;5209868;28;20013;-69
2022/10/09 10:04:01;;;;;;;8.68;4.45;;;;;;;-141.48;100.00;69781.59;5208874;28;20162;-68
2022/10/09 10:06:34;;;;;;;5.05;4.18;;;;;;;-141.48;100.00;69781.59;5209210;28;20021;-68
2022/10/09 10:09:13;;;;;;;5.03;3.08;;;;;;;-141.48;100.00;69781.59;5208767;28;20061;-68
2022/10/09 10:12:00;;;;;;;4.20;3.78;;;;;;;-141.48;100.00;69781.59;5209004;28;20028;-67
2022/10/09 10:14:33;;;;;;;4.45;3.50;;;;;;;-141.48;100.00;69781.59;5208964;28;20549;-69
2022/10/09 10:17:03;;;;;;;4.25;3.85;;;;;;;-141.48;100.00;69781.59;5208888;28;20025;-67
2022/10/09 10:19:34;;;;;;;3.42;2.97;;;;;;;-141.48;100.00;69781.59;5208961;28;20397;-68
2022/10/09 10:22:20;;;;;;;4.47;3.97;;;;;;;-141.48;100.00;69781.59;5208506;28;20032;-68
2022/10/09 10:24:55;;;;;;;5.00;3.88;;;;;;;-141.48;100.00;69781.59;5207712;28;20535;-68
2022/10/09 10:27:41;;;;;;;4.43;3.63;;;;;;;-141.48;100.00;69781.59;5218822;28;20021;-67
2022/10/09 10:30:15;;;;;;;9.73;4.05;;;;;;;-141.48;100.00;69781.59;5187750;28;20026;-67
2022/10/09 10:32:49;;;;;;;5.15;4.00;;;;;;;-141.48;100.00;69781.59;5201086;28;20056;-67
2022/10/09 10:35:24;;;;;;;2.80;2.70;;;;;;;-141.48;100.00;69781.59;5206406;28;20039;-67
2022/10/09 10:38:24;;;;;;;3.92;3.72;;;;;;;-141.48;100.00;69781.59;5198037;28;20064;-69
2022/10/09 10:40:57;;;;;;;9.98;3.67;;;;;;;-141.48;100.00;69781.59;5207903;28;20068;-68
2022/10/09 10:43:37;;;;;;;8.10;3.30;;;;;;;-141.48;100.00;69781.59;5208258;28;20033;-68
2022/10/09 10:46:20;;;;;;;2.58;2.47;;;;;;;-141.48;100.00;69781.59;5208273;28;20056;-68
2022/10/09 10:48:52;;;;;;;7.00;4.00;;;;;;;-141.48;100.00;69781.59;5167017;28;20041;-67
2022/10/09 10:52:04;;;;;;;4.55;4.03;;;;;;;-141.48;100.00;69781.59;5183961;28;20049;-67
2022/10/09 10:55:09;;;;;;;9.60;4.45;;;;;;;-141.48;100.00;69781.59;5126033;28;20061;-67
2022/10/09 10:57:58;;;;;;;3.00;2.85;;;;;;;-141.48;100.00;69781.59;5123483;28;20518;-68
2022/10/09 11:00:32;;;;;;;4.72;3.60;;;;;;;-141.48;100.00;69781.59;5181627;28;20041;-70
2022/10/09 11:03:33;;;;;;;4.90;4.32;;;;;;;-141.48;100.00;69781.59;5167308;28;20140;-68
2022/10/09 11:06:11;;;;;;;8.35;4.72;;;;;;;-141.48;100.00;69781.59;5168052;28;20034;-69
2022/10/09 11:09:01;;;;;;;5.22;3.13;;;;;;;-141.48;100.00;69781.59;5167754;28;20049;-68
2022/10/09 11:12:03;;;;;;;4.40;4.00;;;;;;;-141.48;100.00;69781.59;5185794;28;20275;-69
2022/10/09 11:14:45;;;;;;;11.65;3.72;;;;;;;-141.48;100.00;69781.59;5167644;28;20064;-67
2022/10/09 11:17:25;;;;;;;3.75;3.55;;;;;;;-141.48;100.00;69781.59;5168125;28;20501;-68
2022/10/09 11:20:01;;;;;;;;;;;;;;;-141.48;100.00;69781.59;5167410;28;20438;-71
2022/10/09 11:23:11;;;;;;;3.03;2.83;;;;;;;-141.48;100.00;69781.59;5166992;28;19921;-68
2022/10/09 11:26:07;;;;;;;3.63;3.33;;;;;;;-141.48;100.00;69781.59;5146629;28;20104;-67
2022/10/09 11:29:19;;;;;;;5.22;4.68;;;;;;;-141.48;100.00;69781.59;5166930;28;20473;-68
2022/10/09 11:31:55;;;;;;;4.78;3.83;;;;;;;-141.48;100.00;69781.59;5184769;28;20034;-68